sensor_id;sensor_type;location;lat;lon;timestamp;pressure;altitude;pressure_sealevel;temperature;humidity
84994;BME280;75309;44.830;20.460;2024-03-08T00:00:10;101074.35;;;8.63;65.02
84994;BME280;75309;44.830;20.460;2024-03-08T00:02:58;101077.58;;;8.63;64.96
84994;BME280;75309;44.830;20.460;2024-03-08T00:05:28;101080.40;;;8.65;64.91
84994;BME280;75309;44.830;20.460;2024-03-08T00:07:55;101080.79;;;8.66;64.94
84994;BME280;75309;44.830;20.460;2024-03-08T00:10:24;101082.02;;;8.66;64.81
84994;BME280;75309;44.830;20.460;2024-03-08T00:12:54;101083.10;;;8.64;64.87
84994;BME280;75309;44.830;20.460;2024-03-08T00:15:21;101086.38;;;8.62;64.90
84994;BME280;75309;44.830;20.460;2024-03-08T00:17:49;101083.20;;;8.60;64.90
84994;BME280;75309;44.830;20.460;2024-03-08T00:20:18;101086.02;;;8.59;64.95
84994;BME280;75309;44.830;20.460;2024-03-08T00:22:46;101088.56;;;8.58;65.24
84994;BME280;75309;44.830;20.460;2024-03-08T00:25:13;101083.08;;;8.56;65.35
84994;BME280;75309;44.830;20.460;2024-03-08T00:27:40;101088.45;;;8.54;65.54
84994;BME280;75309;44.830;20.460;2024-03-08T00:30:11;101088.63;;;8.54;65.49
84994;BME280;75309;44.830;20.460;2024-03-08T00:32:39;101088.10;;;8.54;65.56
84994;BME280;75309;44.830;20.460;2024-03-08T00:35:06;101087.52;;;8.53;65.45
84994;BME280;75309;44.830;20.460;2024-03-08T00:37:36;101088.20;;;8.53;65.48
84994;BME280;75309;44.830;20.460;2024-03-08T00:40:04;101084.15;;;8.54;65.51
84994;BME280;75309;44.830;20.460;2024-03-08T00:42:30;101083.67;;;8.52;65.41
84994;BME280;75309;44.830;20.460;2024-03-08T00:44:57;101083.92;;;8.50;65.54
84994;BME280;75309;44.830;20.460;2024-03-08T00:47:25;101083.13;;;8.51;65.44
84994;BME280;75309;44.830;20.460;2024-03-08T00:49:53;101078.96;;;8.50;65.40
84994;BME280;75309;44.830;20.460;2024-03-08T00:52:24;101077.35;;;8.49;65.45
84994;BME280;75309;44.830;20.460;2024-03-08T00:54:50;101075.36;;;8.50;65.66
84994;BME280;75309;44.830;20.460;2024-03-08T00:57:17;101077.17;;;8.51;65.94
84994;BME280;75309;44.830;20.460;2024-03-08T00:59:44;101072.67;;;8.56;66.17
84994;BME280;75309;44.830;20.460;2024-03-08T01:02:10;101075.04;;;8.58;66.14
84994;BME280;75309;44.830;20.460;2024-03-08T01:04:38;101072.71;;;8.59;65.81
84994;BME280;75309;44.830;20.460;2024-03-08T01:07:04;101068.75;;;8.61;65.64
84994;BME280;75309;44.830;20.460;2024-03-08T01:09:32;101070.08;;;8.60;65.58
84994;BME280;75309;44.830;20.460;2024-03-08T01:11:58;101070.88;;;8.62;65.60
84994;BME280;75309;44.830;20.460;2024-03-08T01:14:25;101072.02;;;8.65;65.47
84994;BME280;75309;44.830;20.460;2024-03-08T01:16:53;101069.54;;;8.66;65.46
84994;BME280;75309;44.830;20.460;2024-03-08T01:19:21;101069.60;;;8.67;65.39
84994;BME280;75309;44.830;20.460;2024-03-08T01:21:49;101071.48;;;8.64;65.35
84994;BME280;75309;44.830;20.460;2024-03-08T01:24:15;101072.61;;;8.60;65.48
84994;BME280;75309;44.830;20.460;2024-03-08T01:26:42;101072.88;;;8.59;65.39
84994;BME280;75309;44.830;20.460;2024-03-08T01:29:09;101077.11;;;8.58;65.42
84994;BME280;75309;44.830;20.460;2024-03-08T01:31:35;101079.00;;;8.56;65.53
84994;BME280;75309;44.830;20.460;2024-03-08T01:34:03;101075.48;;;8.54;65.77
84994;BME280;75309;44.830;20.460;2024-03-08T01:36:29;101080.39;;;8.54;66.13
84994;BME280;75309;44.830;20.460;2024-03-08T01:38:56;101080.95;;;8.55;66.34
84994;BME280;75309;44.830;20.460;2024-03-08T01:41:22;101080.81;;;8.55;66.39
84994;BME280;75309;44.830;20.460;2024-03-08T01:43:50;101082.48;;;8.54;66.12
84994;BME280;75309;44.830;20.460;2024-03-08T01:46:19;101077.52;;;8.52;66.21
84994;BME280;75309;44.830;20.460;2024-03-08T01:48:48;101078.27;;;8.50;66.20
84994;BME280;75309;44.830;20.460;2024-03-08T01:51:18;101079.65;;;8.50;66.14
84994;BME280;75309;44.830;20.460;2024-03-08T01:53:46;101079.59;;;8.49;66.09
84994;BME280;75309;44.830;20.460;2024-03-08T01:56:13;101077.17;;;8.44;66.26
84994;BME280;75309;44.830;20.460;2024-03-08T01:58:41;101082.55;;;8.40;66.20
84994;BME280;75309;44.830;20.460;2024-03-08T02:01:12;101080.83;;;8.37;66.28
84994;BME280;75309;44.830;20.460;2024-03-08T02:03:41;101083.87;;;8.37;66.35
84994;BME280;75309;44.830;20.460;2024-03-08T02:06:11;101080.85;;;8.35;66.16
84994;BME280;75309;44.830;20.460;2024-03-08T02:08:41;101083.16;;;8.34;66.58
84994;BME280;75309;44.830;20.460;2024-03-08T02:11:08;101084.09;;;8.35;66.86
84994;BME280;75309;44.830;20.460;2024-03-08T02:13:36;101082.01;;;8.37;66.82
84994;BME280;75309;44.830;20.460;2024-03-08T02:16:03;101081.27;;;8.39;66.70
84994;BME280;75309;44.830;20.460;2024-03-08T02:18:30;101079.13;;;8.40;66.57
84994;BME280;75309;44.830;20.460;2024-03-08T02:20:59;101079.09;;;8.39;66.45
84994;BME280;75309;44.830;20.460;2024-03-08T02:23:27;101078.92;;;8.37;66.41
84994;BME280;75309;44.830;20.460;2024-03-08T02:25:56;101077.30;;;8.36;66.32
84994;BME280;75309;44.830;20.460;2024-03-08T02:28:23;101076.95;;;8.35;66.36
84994;BME280;75309;44.830;20.460;2024-03-08T02:30:52;101078.32;;;8.35;66.18
84994;BME280;75309;44.830;20.460;2024-03-08T02:33:23;101075.14;;;8.34;66.11
84994;BME280;75309;44.830;20.460;2024-03-08T02:35:50;101078.52;;;8.30;66.31
84994;BME280;75309;44.830;20.460;2024-03-08T02:38:19;101076.28;;;8.30;66.57
84994;BME280;75309;44.830;20.460;2024-03-08T02:40:48;101075.70;;;8.32;66.71
84994;BME280;75309;44.830;20.460;2024-03-08T02:43:19;101075.76;;;8.33;66.65
84994;BME280;75309;44.830;20.460;2024-03-08T02:45:46;101078.31;;;8.35;66.56
84994;BME280;75309;44.830;20.460;2024-03-08T02:48:14;101077.17;;;8.36;66.40
84994;BME280;75309;44.830;20.460;2024-03-08T02:50:41;101079.27;;;8.37;66.38
84994;BME280;75309;44.830;20.460;2024-03-08T02:53:12;101080.45;;;8.37;66.23
84994;BME280;75309;44.830;20.460;2024-03-08T02:55:41;101078.82;;;8.33;66.30
84994;BME280;75309;44.830;20.460;2024-03-08T02:58:09;101079.10;;;8.31;66.32
84994;BME280;75309;44.830;20.460;2024-03-08T03:00:40;101081.73;;;8.29;66.41
84994;BME280;75309;44.830;20.460;2024-03-08T03:03:07;101084.16;;;8.27;66.52
84994;BME280;75309;44.830;20.460;2024-03-08T03:05:34;101084.76;;;8.26;66.76
84994;BME280;75309;44.830;20.460;2024-03-08T03:08:01;101087.95;;;8.26;66.76
84994;BME280;75309;44.830;20.460;2024-03-08T03:10:30;101090.13;;;8.25;66.76
84994;BME280;75309;44.830;20.460;2024-03-08T03:12:57;101089.98;;;8.27;66.57
84994;BME280;75309;44.830;20.460;2024-03-08T03:15:25;101093.90;;;8.30;66.57
84994;BME280;75309;44.830;20.460;2024-03-08T03:17:54;101088.58;;;8.33;66.40
84994;BME280;75309;44.830;20.460;2024-03-08T03:20:21;101092.10;;;8.32;66.43
84994;BME280;75309;44.830;20.460;2024-03-08T03:22:59;101095.33;;;8.31;66.38
84994;BME280;75309;44.830;20.460;2024-03-08T03:25:29;101099.02;;;8.33;66.29
84994;BME280;75309;44.830;20.460;2024-03-08T03:28:03;101097.57;;;8.32;66.31
84994;BME280;75309;44.830;20.460;2024-03-08T03:30:32;101102.29;;;8.28;66.45
84994;BME280;75309;44.830;20.460;2024-03-08T03:33:02;101100.64;;;8.29;66.82
84994;BME280;75309;44.830;20.460;2024-03-08T03:35:33;101101.00;;;8.35;66.92
84994;BME280;75309;44.830;20.460;2024-03-08T03:38:00;101100.36;;;8.38;66.80
84994;BME280;75309;44.830;20.460;2024-03-08T03:40:34;101097.02;;;8.39;66.54
84994;BME280;75309;44.830;20.460;2024-03-08T03:43:01;101105.98;;;8.38;66.32
84994;BME280;75309;44.830;20.460;2024-03-08T03:45:29;101104.88;;;8.37;66.37
84994;BME280;75309;44.830;20.460;2024-03-08T03:47:55;101106.52;;;8.36;66.22
84994;BME280;75309;44.830;20.460;2024-03-08T03:50:22;101106.59;;;8.34;66.34
84994;BME280;75309;44.830;20.460;2024-03-08T03:52:49;101107.05;;;8.33;66.18
84994;BME280;75309;44.830;20.460;2024-03-08T03:55:16;101113.27;;;8.32;66.23
84994;BME280;75309;44.830;20.460;2024-03-08T03:57:43;101112.05;;;8.31;66.16
84994;BME280;75309;44.830;20.460;2024-03-08T04:00:12;101114.73;;;8.30;66.26
84994;BME280;75309;44.830;20.460;2024-03-08T04:02:40;101119.29;;;8.29;66.22
84994;BME280;75309;44.830;20.460;2024-03-08T04:05:08;101115.02;;;8.29;66.30
84994;BME280;75309;44.830;20.460;2024-03-08T04:07:35;101116.45;;;8.30;66.78
84994;BME280;75309;44.830;20.460;2024-03-08T04:10:03;101117.52;;;8.31;66.63
84994;BME280;75309;44.830;20.460;2024-03-08T04:12:30;101116.55;;;8.32;66.68
84994;BME280;75309;44.830;20.460;2024-03-08T04:14:57;101116.08;;;8.33;66.64
84994;BME280;75309;44.830;20.460;2024-03-08T04:17:23;101121.73;;;8.30;66.67
84994;BME280;75309;44.830;20.460;2024-03-08T04:19:52;101122.98;;;8.31;66.52
84994;BME280;75309;44.830;20.460;2024-03-08T04:22:20;101125.83;;;8.30;66.50
84994;BME280;75309;44.830;20.460;2024-03-08T04:24:46;101128.38;;;8.27;66.67
84994;BME280;75309;44.830;20.460;2024-03-08T04:27:14;101124.80;;;8.25;66.76
84994;BME280;75309;44.830;20.460;2024-03-08T04:29:42;101127.45;;;8.26;66.67
84994;BME280;75309;44.830;20.460;2024-03-08T04:32:09;101128.46;;;8.24;66.52
84994;BME280;75309;44.830;20.460;2024-03-08T04:34:36;101124.22;;;8.24;66.53
84994;BME280;75309;44.830;20.460;2024-03-08T04:37:03;101127.19;;;8.25;66.47
84994;BME280;75309;44.830;20.460;2024-03-08T04:39:33;101130.48;;;8.26;66.77
84994;BME280;75309;44.830;20.460;2024-03-08T04:42:02;101129.04;;;8.30;66.98
84994;BME280;75309;44.830;20.460;2024-03-08T04:44:39;101129.02;;;8.35;67.10
84994;BME280;75309;44.830;20.460;2024-03-08T04:47:07;101129.01;;;8.40;66.85
84994;BME280;75309;44.830;20.460;2024-03-08T04:49:33;101131.72;;;8.42;66.67
84994;BME280;75309;44.830;20.460;2024-03-08T04:52:04;101132.97;;;8.43;66.47
84994;BME280;75309;44.830;20.460;2024-03-08T04:54:31;101134.21;;;8.44;66.56
84994;BME280;75309;44.830;20.460;2024-03-08T04:57:12;101135.71;;;8.45;66.31
84994;BME280;75309;44.830;20.460;2024-03-08T04:59:38;101136.60;;;8.46;66.14
84994;BME280;75309;44.830;20.460;2024-03-08T05:02:06;101132.65;;;8.45;66.05
84994;BME280;75309;44.830;20.460;2024-03-08T05:04:34;101133.52;;;8.44;65.89
84994;BME280;75309;44.830;20.460;2024-03-08T05:07:02;101136.44;;;8.41;66.00
84994;BME280;75309;44.830;20.460;2024-03-08T05:09:29;101137.27;;;8.38;65.99
84994;BME280;75309;44.830;20.460;2024-03-08T05:11:58;101146.85;;;8.36;65.92
84994;BME280;75309;44.830;20.460;2024-03-08T05:14:26;101145.02;;;8.34;65.85
84994;BME280;75309;44.830;20.460;2024-03-08T05:16:52;101147.56;;;8.34;65.87
84994;BME280;75309;44.830;20.460;2024-03-08T05:19:20;101150.10;;;8.33;65.78
84994;BME280;75309;44.830;20.460;2024-03-08T05:21:48;101148.91;;;8.36;66.03
84994;BME280;75309;44.830;20.460;2024-03-08T05:24:15;101153.13;;;8.41;66.22
84994;BME280;75309;44.830;20.460;2024-03-08T05:26:43;101155.11;;;8.44;66.11
84994;BME280;75309;44.830;20.460;2024-03-08T05:29:10;101153.83;;;8.48;66.10
84994;BME280;75309;44.830;20.460;2024-03-08T05:31:47;101155.45;;;8.52;65.90
84994;BME280;75309;44.830;20.460;2024-03-08T05:34:15;101154.20;;;8.54;65.64
84994;BME280;75309;44.830;20.460;2024-03-08T05:36:42;101156.14;;;8.57;65.27
84994;BME280;75309;44.830;20.460;2024-03-08T05:39:27;101158.59;;;8.58;65.07
84994;BME280;75309;44.830;20.460;2024-03-08T05:41:54;101159.49;;;8.59;65.02
84994;BME280;75309;44.830;20.460;2024-03-08T05:44:22;101164.40;;;8.61;64.86
84994;BME280;75309;44.830;20.460;2024-03-08T05:46:49;101167.33;;;8.64;64.85
84994;BME280;75309;44.830;20.460;2024-03-08T05:49:17;101169.73;;;8.67;64.61
84994;BME280;75309;44.830;20.460;2024-03-08T05:51:44;101173.08;;;8.69;64.56
84994;BME280;75309;44.830;20.460;2024-03-08T05:54:11;101173.17;;;8.67;64.22
84994;BME280;75309;44.830;20.460;2024-03-08T05:56:42;101173.29;;;8.64;64.17
84994;BME280;75309;44.830;20.460;2024-03-08T05:59:11;101172.82;;;8.62;64.15
84994;BME280;75309;44.830;20.460;2024-03-08T06:01:38;101178.98;;;8.59;64.10
84994;BME280;75309;44.830;20.460;2024-03-08T06:04:07;101177.26;;;8.59;64.06
84994;BME280;75309;44.830;20.460;2024-03-08T06:06:35;101180.47;;;8.58;64.05
84994;BME280;75309;44.830;20.460;2024-03-08T06:09:05;101184.66;;;8.60;64.11
84994;BME280;75309;44.830;20.460;2024-03-08T06:11:43;101188.88;;;8.59;64.05
84994;BME280;75309;44.830;20.460;2024-03-08T06:14:10;101187.73;;;8.60;63.99
84994;BME280;75309;44.830;20.460;2024-03-08T06:16:36;101191.20;;;8.61;63.97
84994;BME280;75309;44.830;20.460;2024-03-08T06:19:04;101190.55;;;8.58;64.12
84994;BME280;75309;44.830;20.460;2024-03-08T06:21:32;101189.84;;;8.58;64.26
84994;BME280;75309;44.830;20.460;2024-03-08T06:23:58;101188.98;;;8.58;64.21
84994;BME280;75309;44.830;20.460;2024-03-08T06:26:25;101194.20;;;8.59;64.04
84994;BME280;75309;44.830;20.460;2024-03-08T06:28:57;101193.38;;;8.60;63.72
84994;BME280;75309;44.830;20.460;2024-03-08T06:31:24;101193.48;;;8.61;63.56
84994;BME280;75309;44.830;20.460;2024-03-08T06:33:50;101193.81;;;8.64;63.56
84994;BME280;75309;44.830;20.460;2024-03-08T06:36:19;101194.90;;;8.68;63.40
84994;BME280;75309;44.830;20.460;2024-03-08T06:38:48;101199.46;;;8.70;63.29
84994;BME280;75309;44.830;20.460;2024-03-08T06:41:16;101200.45;;;8.72;63.18
84994;BME280;75309;44.830;20.460;2024-03-08T06:43:44;101202.52;;;8.72;63.26
84994;BME280;75309;44.830;20.460;2024-03-08T06:46:14;101202.27;;;8.73;63.10
84994;BME280;75309;44.830;20.460;2024-03-08T06:48:41;101203.20;;;8.74;62.93
84994;BME280;75309;44.830;20.460;2024-03-08T06:51:08;101202.34;;;8.74;62.90
84994;BME280;75309;44.830;20.460;2024-03-08T06:53:35;101211.27;;;8.75;62.92
84994;BME280;75309;44.830;20.460;2024-03-08T06:56:03;101209.14;;;8.76;62.95
84994;BME280;75309;44.830;20.460;2024-03-08T06:58:30;101209.73;;;8.75;63.02
84994;BME280;75309;44.830;20.460;2024-03-08T07:00:56;101212.23;;;8.72;62.98
84994;BME280;75309;44.830;20.460;2024-03-08T07:03:29;101212.34;;;8.68;63.03
84994;BME280;75309;44.830;20.460;2024-03-08T07:05:57;101211.14;;;8.62;63.10
84994;BME280;75309;44.830;20.460;2024-03-08T07:08:29;101209.61;;;8.62;63.17
84994;BME280;75309;44.830;20.460;2024-03-08T07:10:56;101211.48;;;8.65;63.23
84994;BME280;75309;44.830;20.460;2024-03-08T07:13:27;101214.85;;;8.67;63.15
84994;BME280;75309;44.830;20.460;2024-03-08T07:15:54;101217.52;;;8.66;63.28
84994;BME280;75309;44.830;20.460;2024-03-08T07:18:21;101219.23;;;8.66;62.97
84994;BME280;75309;44.830;20.460;2024-03-08T07:20:48;101218.77;;;8.64;63.36
84994;BME280;75309;44.830;20.460;2024-03-08T07:23:16;101219.21;;;8.71;63.37
84994;BME280;75309;44.830;20.460;2024-03-08T07:26:03;101217.39;;;8.77;63.60
84994;BME280;75309;44.830;20.460;2024-03-08T07:28:30;101218.33;;;8.84;63.77
84994;BME280;75309;44.830;20.460;2024-03-08T07:30:58;101220.45;;;8.87;63.51
84994;BME280;75309;44.830;20.460;2024-03-08T07:33:39;101221.57;;;8.94;63.22
84994;BME280;75309;44.830;20.460;2024-03-08T07:36:06;101223.29;;;9.00;63.15
84994;BME280;75309;44.830;20.460;2024-03-08T07:38:33;101223.80;;;9.03;62.82
84994;BME280;75309;44.830;20.460;2024-03-08T07:41:00;101222.36;;;9.07;62.52
84994;BME280;75309;44.830;20.460;2024-03-08T07:43:30;101223.67;;;9.09;62.31
84994;BME280;75309;44.830;20.460;2024-03-08T07:45:56;101221.96;;;9.11;62.09
84994;BME280;75309;44.830;20.460;2024-03-08T07:48:24;101218.59;;;9.14;61.78
84994;BME280;75309;44.830;20.460;2024-03-08T07:50:52;101220.21;;;9.13;61.60
84994;BME280;75309;44.830;20.460;2024-03-08T07:53:19;101224.25;;;9.15;61.67
84994;BME280;75309;44.830;20.460;2024-03-08T07:55:45;101228.54;;;9.18;61.46
84994;BME280;75309;44.830;20.460;2024-03-08T07:58:12;101227.32;;;9.20;61.28
84994;BME280;75309;44.830;20.460;2024-03-08T08:00:39;101233.81;;;9.23;61.22
84994;BME280;75309;44.830;20.460;2024-03-08T08:03:09;101234.27;;;9.24;61.07
84994;BME280;75309;44.830;20.460;2024-03-08T08:05:36;101234.70;;;9.26;61.05
84994;BME280;75309;44.830;20.460;2024-03-08T08:08:05;101233.86;;;9.26;60.88
84994;BME280;75309;44.830;20.460;2024-03-08T08:10:34;101234.23;;;9.27;60.89
84994;BME280;75309;44.830;20.460;2024-03-08T08:13:01;101232.90;;;9.27;60.59
84994;BME280;75309;44.830;20.460;2024-03-08T08:15:29;101236.95;;;9.29;60.47
84994;BME280;75309;44.830;20.460;2024-03-08T08:17:55;101234.89;;;9.29;60.73
84994;BME280;75309;44.830;20.460;2024-03-08T08:20:22;101235.58;;;9.29;60.73
84994;BME280;75309;44.830;20.460;2024-03-08T08:22:49;101236.84;;;9.27;60.61
84994;BME280;75309;44.830;20.460;2024-03-08T08:25:18;101237.60;;;9.28;60.50
84994;BME280;75309;44.830;20.460;2024-03-08T08:27:47;101239.73;;;9.27;60.48
84994;BME280;75309;44.830;20.460;2024-03-08T08:30:14;101239.44;;;9.25;60.48
84994;BME280;75309;44.830;20.460;2024-03-08T08:32:41;101237.77;;;9.20;60.53
84994;BME280;75309;44.830;20.460;2024-03-08T08:35:10;101241.70;;;9.18;60.61
84994;BME280;75309;44.830;20.460;2024-03-08T08:37:39;101241.27;;;9.16;60.68
84994;BME280;75309;44.830;20.460;2024-03-08T08:40:07;101245.58;;;9.17;60.81
84994;BME280;75309;44.830;20.460;2024-03-08T08:42:40;101243.84;;;9.16;60.84
84994;BME280;75309;44.830;20.460;2024-03-08T08:45:08;101242.53;;;9.17;60.76
84994;BME280;75309;44.830;20.460;2024-03-08T08:47:46;101238.33;;;9.18;60.89
84994;BME280;75309;44.830;20.460;2024-03-08T08:50:14;101239.63;;;9.20;60.82
84994;BME280;75309;44.830;20.460;2024-03-08T08:52:40;101243.60;;;9.21;60.69
84994;BME280;75309;44.830;20.460;2024-03-08T08:55:10;101240.95;;;9.22;60.70
84994;BME280;75309;44.830;20.460;2024-03-08T08:57:41;101235.91;;;9.21;60.59
84994;BME280;75309;44.830;20.460;2024-03-08T09:00:09;101234.49;;;9.20;60.54
84994;BME280;75309;44.830;20.460;2024-03-08T09:02:41;101235.81;;;9.19;60.65
84994;BME280;75309;44.830;20.460;2024-03-08T09:05:10;101234.73;;;9.19;60.73
84994;BME280;75309;44.830;20.460;2024-03-08T09:07:37;101233.60;;;9.19;60.67
84994;BME280;75309;44.830;20.460;2024-03-08T09:10:05;101236.23;;;9.21;60.77
84994;BME280;75309;44.830;20.460;2024-03-08T09:12:34;101236.98;;;9.22;60.77
84994;BME280;75309;44.830;20.460;2024-03-08T09:15:01;101234.42;;;9.24;60.76
84994;BME280;75309;44.830;20.460;2024-03-08T09:17:28;101234.96;;;9.24;60.73
84994;BME280;75309;44.830;20.460;2024-03-08T09:19:54;101234.28;;;9.25;60.90
84994;BME280;75309;44.830;20.460;2024-03-08T09:22:21;101236.79;;;9.26;60.86
84994;BME280;75309;44.830;20.460;2024-03-08T09:24:48;101233.95;;;9.27;60.86
84994;BME280;75309;44.830;20.460;2024-03-08T09:27:14;101232.73;;;9.30;60.95
84994;BME280;75309;44.830;20.460;2024-03-08T09:29:41;101235.42;;;9.35;60.96
84994;BME280;75309;44.830;20.460;2024-03-08T09:32:09;101236.34;;;9.39;60.97
84994;BME280;75309;44.830;20.460;2024-03-08T09:34:37;101234.88;;;9.42;60.86
84994;BME280;75309;44.830;20.460;2024-03-08T09:37:05;101234.80;;;9.47;60.78
84994;BME280;75309;44.830;20.460;2024-03-08T09:39:35;101235.48;;;9.52;60.73
84994;BME280;75309;44.830;20.460;2024-03-08T09:42:01;101237.95;;;9.56;60.73
84994;BME280;75309;44.830;20.460;2024-03-08T09:44:28;101234.39;;;9.59;60.69
84994;BME280;75309;44.830;20.460;2024-03-08T09:46:55;101236.32;;;9.63;60.64
84994;BME280;75309;44.830;20.460;2024-03-08T09:49:22;101235.89;;;9.67;60.73
84994;BME280;75309;44.830;20.460;2024-03-08T09:51:50;101237.77;;;9.73;60.61
84994;BME280;75309;44.830;20.460;2024-03-08T09:54:19;101235.66;;;9.80;60.55
84994;BME280;75309;44.830;20.460;2024-03-08T09:56:51;101239.87;;;9.88;60.51
84994;BME280;75309;44.830;20.460;2024-03-08T09:59:20;101240.01;;;9.95;60.40
84994;BME280;75309;44.830;20.460;2024-03-08T10:01:53;101240.52;;;10.04;60.30
84994;BME280;75309;44.830;20.460;2024-03-08T10:04:22;101246.99;;;10.12;60.04
84994;BME280;75309;44.830;20.460;2024-03-08T10:06:49;101243.79;;;10.19;59.96
84994;BME280;75309;44.830;20.460;2024-03-08T10:09:16;101242.50;;;10.26;59.78
84994;BME280;75309;44.830;20.460;2024-03-08T10:11:43;101245.45;;;10.32;59.82
84994;BME280;75309;44.830;20.460;2024-03-08T10:14:09;101247.49;;;10.37;59.69
84994;BME280;75309;44.830;20.460;2024-03-08T10:16:39;101249.80;;;10.42;59.35
84994;BME280;75309;44.830;20.460;2024-03-08T10:19:06;101245.27;;;10.46;59.39
84994;BME280;75309;44.830;20.460;2024-03-08T10:21:48;101243.08;;;10.53;59.41
84994;BME280;75309;44.830;20.460;2024-03-08T10:24:15;101242.52;;;10.63;59.19
84994;BME280;75309;44.830;20.460;2024-03-08T10:26:44;101242.59;;;10.74;59.05
84994;BME280;75309;44.830;20.460;2024-03-08T10:29:15;101242.36;;;10.82;58.95
84994;BME280;75309;44.830;20.460;2024-03-08T10:31:44;101239.11;;;10.88;58.81
84994;BME280;75309;44.830;20.460;2024-03-08T10:34:12;101236.38;;;10.97;58.60
84994;BME280;75309;44.830;20.460;2024-03-08T10:36:40;101229.36;;;11.07;58.30
84994;BME280;75309;44.830;20.460;2024-03-08T10:39:21;101222.52;;;11.16;58.23
84994;BME280;75309;44.830;20.460;2024-03-08T10:42:11;101222.61;;;11.24;58.06
84994;BME280;75309;44.830;20.460;2024-03-08T10:45:05;101222.80;;;11.31;57.93
84994;BME280;75309;44.830;20.460;2024-03-08T10:47:40;101224.98;;;11.40;57.92
84994;BME280;75309;44.830;20.460;2024-03-08T10:50:19;101222.95;;;11.46;57.69
84994;BME280;75309;44.830;20.460;2024-03-08T10:52:54;101218.49;;;11.53;57.58
84994;BME280;75309;44.830;20.460;2024-03-08T10:55:25;101217.06;;;11.58;57.41
84994;BME280;75309;44.830;20.460;2024-03-08T10:57:53;101214.21;;;11.63;57.25
84994;BME280;75309;44.830;20.460;2024-03-08T11:00:20;101211.95;;;11.65;57.22
84994;BME280;75309;44.830;20.460;2024-03-08T11:02:58;101212.76;;;11.64;57.09
84994;BME280;75309;44.830;20.460;2024-03-08T11:05:35;101210.28;;;11.63;57.25
84994;BME280;75309;44.830;20.460;2024-03-08T11:08:17;101208.24;;;11.60;57.08
84994;BME280;75309;44.830;20.460;2024-03-08T11:10:52;101207.00;;;11.60;57.19
84994;BME280;75309;44.830;20.460;2024-03-08T11:13:37;101205.08;;;11.62;57.16
84994;BME280;75309;44.830;20.460;2024-03-08T11:16:10;101202.23;;;11.66;57.07
84994;BME280;75309;44.830;20.460;2024-03-08T11:18:38;101202.75;;;11.70;57.10
84994;BME280;75309;44.830;20.460;2024-03-08T11:21:08;101202.20;;;11.73;57.08
84994;BME280;75309;44.830;20.460;2024-03-08T11:23:39;101200.75;;;11.75;56.97
84994;BME280;75309;44.830;20.460;2024-03-08T11:26:24;101199.98;;;11.77;56.93
84994;BME280;75309;44.830;20.460;2024-03-08T11:28:51;101195.80;;;11.79;56.81
84994;BME280;75309;44.830;20.460;2024-03-08T11:31:24;101194.88;;;11.77;56.81
84994;BME280;75309;44.830;20.460;2024-03-08T11:33:53;101189.02;;;11.77;56.90
84994;BME280;75309;44.830;20.460;2024-03-08T11:36:21;101192.82;;;11.77;56.69
84994;BME280;75309;44.830;20.460;2024-03-08T11:38:53;101185.27;;;11.81;56.69
84994;BME280;75309;44.830;20.460;2024-03-08T11:41:24;101184.63;;;11.85;56.60
84994;BME280;75309;44.830;20.460;2024-03-08T11:44:04;101180.76;;;11.87;56.60
84994;BME280;75309;44.830;20.460;2024-03-08T11:46:31;101180.14;;;11.84;56.55
84994;BME280;75309;44.830;20.460;2024-03-08T11:48:58;101178.17;;;11.83;56.46
84994;BME280;75309;44.830;20.460;2024-03-08T11:51:27;101175.15;;;11.84;56.27
84994;BME280;75309;44.830;20.460;2024-03-08T11:53:54;101172.64;;;11.86;56.41
84994;BME280;75309;44.830;20.460;2024-03-08T11:56:22;101172.02;;;11.87;56.39
84994;BME280;75309;44.830;20.460;2024-03-08T11:58:54;101167.40;;;11.87;56.42
84994;BME280;75309;44.830;20.460;2024-03-08T12:01:24;101169.45;;;11.87;56.55
84994;BME280;75309;44.830;20.460;2024-03-08T12:03:56;101165.77;;;11.92;56.60
84994;BME280;75309;44.830;20.460;2024-03-08T12:06:36;101165.42;;;11.98;56.49
84994;BME280;75309;44.830;20.460;2024-03-08T12:09:11;101160.48;;;12.03;56.29
84994;BME280;75309;44.830;20.460;2024-03-08T12:11:39;101152.38;;;12.05;55.82
84994;BME280;75309;44.830;20.460;2024-03-08T12:14:06;101151.27;;;12.07;55.75
84994;BME280;75309;44.830;20.460;2024-03-08T12:16:33;101148.15;;;12.10;55.67
84994;BME280;75309;44.830;20.460;2024-03-08T12:19:00;101148.29;;;12.16;55.42
84994;BME280;75309;44.830;20.460;2024-03-08T12:21:31;101147.23;;;12.23;54.87
84994;BME280;75309;44.830;20.460;2024-03-08T12:24:09;101148.69;;;12.27;54.69
84994;BME280;75309;44.830;20.460;2024-03-08T12:26:39;101146.85;;;12.32;54.73
84994;BME280;75309;44.830;20.460;2024-03-08T12:29:26;101142.04;;;12.35;54.93
84994;BME280;75309;44.830;20.460;2024-03-08T12:31:55;101138.16;;;12.33;54.93
84994;BME280;75309;44.830;20.460;2024-03-08T12:34:24;101141.32;;;12.39;54.77
84994;BME280;75309;44.830;20.460;2024-03-08T12:36:54;101143.80;;;12.40;54.82
84994;BME280;75309;44.830;20.460;2024-03-08T12:39:23;101139.97;;;12.36;54.65
84994;BME280;75309;44.830;20.460;2024-03-08T12:41:54;101141.14;;;12.31;54.69
84994;BME280;75309;44.830;20.460;2024-03-08T12:44:20;101143.42;;;12.29;54.87
84994;BME280;75309;44.830;20.460;2024-03-08T12:46:51;101144.35;;;12.27;54.72
84994;BME280;75309;44.830;20.460;2024-03-08T12:49:21;101144.29;;;12.25;54.62
84994;BME280;75309;44.830;20.460;2024-03-08T12:51:48;101141.59;;;12.23;54.65
84994;BME280;75309;44.830;20.460;2024-03-08T12:54:15;101134.91;;;12.24;54.45
84994;BME280;75309;44.830;20.460;2024-03-08T12:56:43;101134.30;;;12.25;54.34